createdAt,value
2022-12-03T00:00:51.101Z,1.10
2022-12-03T00:03:18.235Z,1.10
2022-12-03T00:05:49.165Z,1.10
2022-12-03T00:08:16.537Z,1.10
2022-12-03T00:10:43.501Z,1.10
2022-12-03T00:13:10.290Z,1.20
2022-12-03T00:15:37.209Z,1.20
2022-12-03T00:18:04.348Z,1.30
2022-12-03T00:20:31.144Z,1.30
2022-12-03T00:22:58.041Z,1.30
2022-12-03T00:25:24.846Z,1.30
2022-12-03T00:27:51.708Z,1.30
2022-12-03T00:30:18.655Z,1.20
2022-12-03T00:32:45.469Z,1.20
2022-12-03T00:35:12.317Z,1.20
2022-12-03T00:37:39.151Z,1.30
2022-12-03T00:40:07.530Z,1.20
2022-12-03T00:42:34.422Z,1.10
2022-12-03T00:45:01.381Z,1.20
2022-12-03T00:47:28.206Z,1.20
2022-12-03T00:49:55.104Z,1.10
2022-12-03T00:52:22.092Z,1.20
2022-12-03T00:54:49.294Z,1.10
2022-12-03T00:57:16.399Z,1.10
2022-12-03T00:59:43.316Z,1.20
2022-12-03T01:02:10.419Z,1.20
2022-12-03T01:04:37.534Z,1.20
2022-12-03T01:07:04.945Z,1.20
2022-12-03T01:09:32.357Z,1.20
2022-12-03T01:11:59.370Z,1.20
2022-12-03T01:14:26.361Z,1.20
2022-12-03T01:16:53.154Z,1.20
2022-12-03T01:19:20.077Z,1.00
2022-12-03T01:21:51.785Z,1.10
2022-12-03T01:24:19.787Z,1.10
2022-12-03T01:26:47.101Z,1.10
2022-12-03T01:29:14.320Z,1.10
2022-12-03T01:31:59.561Z,1.20
2022-12-03T01:34:26.526Z,1.20
2022-12-03T01:36:53.580Z,1.10
2022-12-03T01:39:20.788Z,1.10
2022-12-03T01:41:50.529Z,1.00
2022-12-03T01:44:27.027Z,1.10
2022-12-03T01:46:56.460Z,1.10
2022-12-03T01:49:42.632Z,1.00
2022-12-03T01:52:20.554Z,0.90
2022-12-03T01:54:54.413Z,1.00
2022-12-03T01:57:45.503Z,1.00
2022-12-03T02:00:22.455Z,1.00
2022-12-03T02:02:57.208Z,1.10
2022-12-03T02:05:30.736Z,1.10
2022-12-03T02:07:58.696Z,1.10
2022-12-03T02:10:33.469Z,1.10
2022-12-03T02:13:08.499Z,1.10
2022-12-03T02:15:36.778Z,1.10
2022-12-03T02:18:03.992Z,1.20
2022-12-03T02:20:53.624Z,1.20
2022-12-03T02:24:06.188Z,1.10
2022-12-03T02:26:33.170Z,1.10
2022-12-03T02:29:00.208Z,1.10
2022-12-03T02:31:27.096Z,1.20
2022-12-03T02:33:54.206Z,1.10
2022-12-03T02:36:21.538Z,1.20
2022-12-03T02:38:49.668Z,1.20
2022-12-03T02:41:37.915Z,1.10
2022-12-03T02:44:07.316Z,1.00
2022-12-03T02:46:35.173Z,1.00
2022-12-03T02:49:03.284Z,1.00
2022-12-03T02:51:30.245Z,1.00
2022-12-03T02:53:57.707Z,1.00
2022-12-03T02:56:30.009Z,0.90
2022-12-03T02:59:01.240Z,1.00
2022-12-03T03:01:28.334Z,0.90
2022-12-03T03:03:56.217Z,0.90
2022-12-03T03:06:38.215Z,0.90
2022-12-03T03:09:05.040Z,0.90
2022-12-03T03:11:32.093Z,1.00
2022-12-03T03:14:01.866Z,0.90
2022-12-03T03:16:28.864Z,1.00
2022-12-03T03:18:55.949Z,0.90
2022-12-03T03:21:22.813Z,0.90
2022-12-03T03:23:49.722Z,0.90
2022-12-03T03:26:16.724Z,0.80
2022-12-03T03:28:49.259Z,0.80
2022-12-03T03:31:21.741Z,0.90
2022-12-03T03:33:50.421Z,0.90
2022-12-03T03:36:17.464Z,0.90
2022-12-03T03:38:44.426Z,0.90
2022-12-03T03:41:13.282Z,0.90
2022-12-03T03:43:42.794Z,0.90
2022-12-03T03:46:10.680Z,1.00
2022-12-03T03:48:38.506Z,1.00
2022-12-03T03:51:09.283Z,1.00
2022-12-03T03:53:43.592Z,1.00
2022-12-03T03:56:11.495Z,1.00
2022-12-03T03:58:38.906Z,1.00
2022-12-03T04:01:06.189Z,1.00
2022-12-03T04:03:34.346Z,1.00
2022-12-03T04:06:01.202Z,1.00
2022-12-03T04:08:28.190Z,1.00
2022-12-03T04:11:13.547Z,1.10
2022-12-03T04:13:40.346Z,1.10
2022-12-03T04:16:07.802Z,1.00
2022-12-03T04:18:43.628Z,1.10
2022-12-03T04:21:35.203Z,1.00
2022-12-03T04:24:03.188Z,1.10
2022-12-03T04:26:48.808Z,1.10
2022-12-03T04:29:15.669Z,1.10
2022-12-03T04:32:01.098Z,1.00
2022-12-03T04:34:46.502Z,1.00
2022-12-03T04:37:13.553Z,1.10
2022-12-03T04:39:40.610Z,1.10
2022-12-03T04:42:08.205Z,1.00
2022-12-03T04:44:38.232Z,1.00
2022-12-03T04:47:18.526Z,1.00
2022-12-03T04:49:49.156Z,1.00
2022-12-03T04:52:18.991Z,1.00
2022-12-03T04:54:46.312Z,1.00
2022-12-03T04:57:13.583Z,0.90
2022-12-03T04:59:40.756Z,0.90
2022-12-03T05:02:08.186Z,0.90
2022-12-03T05:04:35.182Z,1.00
2022-12-03T05:07:02.281Z,1.00
2022-12-03T05:09:29.121Z,1.00
2022-12-03T05:11:55.935Z,0.90
2022-12-03T05:14:22.894Z,0.90
2022-12-03T05:16:49.821Z,1.00
2022-12-03T05:19:16.814Z,1.00
2022-12-03T05:21:43.592Z,1.00
2022-12-03T05:24:10.479Z,1.00
2022-12-03T05:26:37.331Z,0.90
2022-12-03T05:29:04.555Z,1.00
2022-12-03T05:31:31.452Z,1.00
2022-12-03T05:33:58.437Z,1.00
2022-12-03T05:36:25.672Z,1.00
2022-12-03T05:38:52.645Z,1.00
2022-12-03T05:41:38.013Z,1.00
2022-12-03T05:44:04.885Z,1.00
2022-12-03T05:46:32.707Z,1.10
2022-12-03T05:48:59.616Z,1.10
2022-12-03T05:51:26.401Z,1.00
2022-12-03T05:53:53.324Z,1.00
2022-12-03T05:56:20.126Z,1.00
2022-12-03T05:58:46.966Z,1.00
2022-12-03T06:01:13.751Z,1.00
2022-12-03T06:03:40.725Z,1.10
2022-12-03T06:06:07.830Z,1.10
2022-12-03T06:08:34.748Z,1.10
2022-12-03T06:11:01.689Z,1.10
2022-12-03T06:13:28.513Z,1.10
2022-12-03T06:15:55.522Z,1.20
2022-12-03T06:18:22.431Z,1.20
2022-12-03T06:20:49.374Z,1.20
2022-12-03T06:23:16.184Z,1.20
2022-12-03T06:25:43.073Z,1.20
2022-12-03T06:28:09.870Z,1.00
2022-12-03T06:30:36.751Z,1.10
2022-12-03T06:33:03.796Z,1.10
2022-12-03T06:35:30.703Z,1.10
2022-12-03T06:37:57.571Z,1.00
2022-12-03T06:40:25.217Z,1.10
2022-12-03T06:42:52.634Z,1.00
2022-12-03T06:45:19.624Z,1.00
2022-12-03T06:47:46.653Z,1.00
2022-12-03T06:50:13.916Z,1.00
2022-12-03T06:52:40.841Z,1.00
2022-12-03T06:55:08.652Z,1.00
2022-12-03T06:57:35.609Z,0.90
2022-12-03T07:00:03.529Z,1.00
2022-12-03T07:02:30.444Z,1.00
2022-12-03T07:04:57.678Z,1.10
2022-12-03T07:07:24.738Z,1.20
2022-12-03T07:09:51.686Z,1.20
2022-12-03T07:12:18.534Z,1.10
2022-12-03T07:14:45.410Z,1.10
2022-12-03T07:17:12.217Z,1.10
2022-12-03T07:19:39.205Z,1.20
2022-12-03T07:22:06.224Z,1.20
2022-12-03T07:24:33.172Z,1.20
2022-12-03T07:26:59.999Z,1.10
2022-12-03T07:29:26.826Z,1.20
2022-12-03T07:31:53.939Z,1.30
2022-12-03T07:34:21.616Z,1.40
2022-12-03T07:36:48.565Z,1.40
2022-12-03T07:39:15.807Z,1.40
2022-12-03T07:41:42.634Z,1.50
2022-12-03T07:44:14.347Z,1.50
2022-12-03T07:46:42.618Z,1.50
2022-12-03T07:49:09.574Z,1.50
2022-12-03T07:51:36.545Z,1.50
2022-12-03T07:54:03.691Z,1.50
2022-12-03T07:56:30.649Z,1.50
2022-12-03T07:58:58.312Z,1.50
2022-12-03T08:01:25.223Z,1.50
2022-12-03T08:03:52.261Z,1.50
2022-12-03T08:06:19.040Z,1.50
2022-12-03T08:08:45.945Z,1.50
2022-12-03T08:11:15.666Z,1.40
2022-12-03T08:13:42.826Z,1.40
2022-12-03T08:16:20.315Z,1.40
2022-12-03T08:18:49.582Z,1.50
2022-12-03T08:21:20.186Z,1.50
2022-12-03T08:23:47.188Z,1.40
2022-12-03T08:26:25.034Z,1.40
2022-12-03T08:28:53.208Z,1.40
2022-12-03T08:31:32.821Z,1.40
2022-12-03T08:34:20.902Z,1.40
2022-12-03T08:36:51.468Z,1.50
2022-12-03T08:39:48.568Z,1.60
2022-12-03T08:42:42.759Z,1.60
2022-12-03T08:45:40.567Z,1.60
2022-12-03T08:48:39.247Z,1.60
2022-12-03T08:51:20.553Z,1.50
2022-12-03T08:53:59.728Z,1.50
2022-12-03T08:56:30.785Z,1.40
2022-12-03T08:59:31.137Z,1.50
2022-12-03T09:02:00.239Z,1.40
2022-12-03T09:04:45.788Z,1.50
2022-12-03T09:07:12.881Z,1.40
2022-12-03T09:09:40.164Z,1.40
2022-12-03T09:12:07.257Z,1.40
2022-12-03T09:14:34.040Z,1.60
2022-12-03T09:17:00.903Z,1.50
2022-12-03T09:19:30.981Z,1.60
2022-12-03T09:21:58.171Z,1.70
2022-12-03T09:24:25.084Z,1.90
2022-12-03T09:26:51.906Z,1.90
2022-12-03T09:29:18.898Z,1.90
2022-12-03T09:31:45.953Z,1.70
2022-12-03T09:34:13.173Z,1.60
2022-12-03T09:36:40.155Z,1.70
2022-12-03T09:39:07.618Z,1.50
2022-12-03T09:41:34.569Z,1.60
2022-12-03T09:44:04.466Z,1.60
2022-12-03T09:46:32.815Z,1.60
2022-12-03T09:49:01.228Z,1.60
2022-12-03T09:51:35.275Z,1.70
2022-12-03T09:54:06.140Z,1.80
2022-12-03T09:56:36.757Z,1.80
2022-12-03T09:59:13.454Z,1.80
2022-12-03T10:01:40.615Z,1.80
2022-12-03T10:04:07.927Z,2.00
2022-12-03T10:06:35.148Z,1.90
2022-12-03T10:09:02.542Z,2.00
2022-12-03T10:11:30.737Z,2.00
2022-12-03T10:13:58.884Z,2.00
2022-12-03T10:16:27.967Z,2.00
2022-12-03T10:18:59.528Z,2.00
2022-12-03T10:21:38.123Z,2.10
2022-12-03T10:24:33.178Z,2.10
2022-12-03T10:27:19.862Z,2.00
2022-12-03T10:29:58.925Z,2.10
2022-12-03T10:32:38.869Z,2.20
2022-12-03T10:35:17.478Z,2.20
2022-12-03T10:38:16.337Z,2.30
2022-12-03T10:40:43.282Z,2.20
2022-12-03T10:43:19.184Z,2.30
2022-12-03T10:46:11.401Z,2.40
2022-12-03T10:48:38.797Z,2.40
2022-12-03T10:51:21.026Z,2.60
2022-12-03T10:53:50.349Z,2.60
2022-12-03T10:56:35.866Z,2.50
2022-12-03T10:59:02.885Z,2.50
2022-12-03T11:01:32.221Z,2.50
2022-12-03T11:04:04.816Z,2.50
2022-12-03T11:06:33.085Z,2.50
2022-12-03T11:09:03.961Z,2.40
2022-12-03T11:11:35.370Z,2.30
2022-12-03T11:14:04.501Z,2.30
2022-12-03T11:16:40.389Z,2.30
2022-12-03T11:19:13.021Z,2.40
2022-12-03T11:22:09.791Z,2.40
2022-12-03T11:24:39.179Z,2.40
2022-12-03T11:27:10.862Z,2.30
2022-12-03T11:30:00.929Z,2.20
2022-12-03T11:32:42.784Z,2.30
2022-12-03T11:35:14.082Z,2.40
2022-12-03T11:37:40.986Z,2.30
2022-12-03T11:40:17.024Z,2.40
2022-12-03T11:42:46.191Z,2.40
2022-12-03T11:45:19.650Z,2.30
2022-12-03T11:48:13.353Z,2.40
2022-12-03T11:50:53.209Z,2.50
2022-12-03T11:53:31.150Z,2.40
2022-12-03T11:56:10.444Z,2.50
2022-12-03T11:58:40.213Z,2.50
2022-12-03T12:01:08.867Z,2.40
2022-12-03T12:03:45.423Z,2.50
2022-12-03T12:06:21.332Z,2.60
2022-12-03T12:08:51.280Z,2.70
2022-12-03T12:11:54.487Z,2.70
2022-12-03T12:14:26.966Z,2.60
2022-12-03T12:16:55.265Z,2.40
2022-12-03T12:19:40.328Z,2.50
2022-12-03T12:22:26.737Z,2.50
2022-12-03T12:25:25.845Z,2.40
2022-12-03T12:27:53.857Z,2.50
2022-12-03T12:30:23.277Z,2.70
2022-12-03T12:33:10.422Z,2.60
2022-12-03T12:35:37.301Z,2.70
2022-12-03T12:38:07.184Z,2.60
2022-12-03T12:40:40.837Z,2.50
2022-12-03T12:43:30.892Z,2.50
2022-12-03T12:46:18.578Z,2.60
2022-12-03T12:48:48.626Z,2.60
2022-12-03T12:51:18.871Z,2.70
2022-12-03T12:53:46.361Z,2.80
2022-12-03T12:56:32.483Z,2.70
2022-12-03T12:59:17.281Z,2.70
2022-12-03T13:01:46.950Z,2.80
2022-12-03T13:04:23.606Z,2.60
2022-12-03T13:06:54.085Z,2.60
2022-12-03T13:09:24.549Z,2.50
2022-12-03T13:12:20.996Z,2.60
2022-12-03T13:14:48.107Z,2.70
2022-12-03T13:17:24.816Z,2.50
2022-12-03T13:20:03.303Z,2.50
2022-12-03T13:22:33.870Z,2.50
2022-12-03T13:28:07.300Z,2.50
2022-12-03T13:30:34.153Z,2.60
2022-12-03T13:33:20.001Z,2.60
2022-12-03T13:35:46.932Z,2.70
2022-12-03T13:38:16.915Z,2.60
2022-12-03T13:40:43.878Z,2.60
2022-12-03T13:43:15.768Z,2.60
2022-12-03T13:45:47.269Z,2.60
2022-12-03T13:48:24.912Z,2.60
2022-12-03T13:50:53.057Z,2.60
2022-12-03T13:53:33.656Z,2.60
2022-12-03T13:56:14.760Z,2.60
2022-12-03T13:58:41.688Z,2.50
2022-12-03T14:01:08.610Z,2.50
2022-12-03T14:03:35.995Z,2.50
2022-12-03T14:06:03.043Z,2.50
2022-12-03T14:08:30.061Z,2.50
2022-12-03T14:11:00.478Z,2.60
2022-12-03T14:13:27.920Z,2.60
2022-12-03T14:15:54.967Z,2.60
2022-12-03T14:18:22.032Z,2.60
2022-12-03T14:20:49.110Z,2.60
2022-12-03T14:23:16.301Z,2.60
2022-12-03T14:25:44.067Z,2.70
2022-12-03T14:28:11.426Z,2.90
2022-12-03T14:30:38.289Z,2.80
2022-12-03T14:33:05.480Z,2.80
2022-12-03T14:35:32.270Z,2.80
2022-12-03T14:37:59.281Z,2.80
2022-12-03T14:40:27.191Z,2.70
2022-12-03T14:42:54.124Z,2.70
2022-12-03T14:45:20.943Z,2.70
2022-12-03T14:47:47.868Z,2.60
2022-12-03T14:50:15.195Z,2.50
2022-12-03T14:52:43.402Z,2.50
2022-12-03T14:55:10.277Z,2.50
2022-12-03T14:57:37.199Z,2.60
2022-12-03T15:00:08.584Z,2.60
2022-12-03T15:02:35.590Z,2.60
2022-12-03T15:05:02.718Z,2.50
2022-12-03T15:07:29.736Z,2.50
2022-12-03T15:09:56.972Z,2.40
2022-12-03T15:12:24.638Z,2.40
2022-12-03T15:14:51.453Z,2.40
2022-12-03T15:17:25.381Z,2.50
2022-12-03T15:19:56.894Z,2.50
2022-12-03T15:22:23.852Z,2.60
2022-12-03T15:24:50.750Z,2.50
2022-12-03T15:27:17.631Z,2.40
2022-12-03T15:29:44.476Z,2.40
2022-12-03T15:32:11.310Z,2.50
2022-12-03T15:34:38.192Z,2.40
2022-12-03T15:37:05.091Z,2.30
2022-12-03T15:39:33.113Z,2.20
2022-12-03T15:41:59.941Z,2.20
2022-12-03T15:44:26.799Z,2.20
2022-12-03T15:46:53.795Z,2.20
2022-12-03T15:49:20.630Z,2.30
2022-12-03T15:51:47.458Z,2.30
2022-12-03T15:54:14.344Z,2.20
2022-12-03T15:56:41.165Z,2.20
2022-12-03T15:59:08.353Z,2.20
2022-12-03T16:01:35.376Z,2.20
2022-12-03T16:04:02.442Z,2.30
2022-12-03T16:06:29.317Z,2.30
2022-12-03T16:08:56.141Z,2.30
2022-12-03T16:11:22.916Z,2.30
2022-12-03T16:13:49.823Z,2.20
2022-12-03T16:16:16.735Z,2.20
2022-12-03T16:18:43.695Z,2.30
2022-12-03T16:21:10.922Z,2.30
2022-12-03T16:23:37.919Z,2.30
2022-12-03T16:26:04.993Z,2.20
2022-12-03T16:28:31.940Z,2.20
2022-12-03T16:30:58.828Z,2.10
2022-12-03T16:33:28.048Z,2.10
2022-12-03T16:35:55.323Z,2.20
2022-12-03T16:38:22.178Z,2.20
2022-12-03T16:40:49.141Z,2.20
2022-12-03T16:43:16.075Z,2.20
2022-12-03T16:45:42.885Z,2.20
2022-12-03T16:48:09.759Z,2.20
2022-12-03T16:50:37.666Z,2.20
2022-12-03T16:53:04.721Z,2.30
2022-12-03T16:55:31.528Z,2.30
2022-12-03T16:57:58.472Z,2.20
2022-12-03T17:00:25.989Z,2.30
2022-12-03T17:02:53.264Z,2.30
2022-12-03T17:05:20.110Z,2.30
2022-12-03T17:07:47.068Z,2.30
2022-12-03T17:10:13.994Z,2.30
2022-12-03T17:13:08.210Z,2.30
2022-12-03T17:15:28.052Z,2.40
2022-12-03T17:17:55.068Z,2.30
2022-12-03T17:20:22.110Z,2.30
2022-12-03T17:22:49.085Z,2.40
2022-12-03T17:25:16.851Z,2.30
2022-12-03T17:27:45.565Z,2.30
2022-12-03T17:30:13.521Z,2.40
2022-12-03T17:32:40.595Z,2.30
2022-12-03T17:35:09.015Z,2.30
2022-12-03T17:37:36.356Z,2.30
2022-12-03T17:40:06.649Z,2.20
2022-12-03T17:42:33.630Z,2.30
2022-12-03T17:45:00.580Z,2.20
2022-12-03T17:47:27.523Z,2.30
2022-12-03T17:49:54.497Z,2.20
2022-12-03T17:52:21.563Z,2.20
2022-12-03T17:55:09.962Z,2.30
2022-12-03T17:57:35.710Z,2.20
2022-12-03T18:00:02.887Z,2.20
2022-12-03T18:02:30.323Z,2.20
2022-12-03T18:04:57.136Z,2.20
2022-12-03T18:07:24.002Z,2.10
2022-12-03T18:09:50.852Z,2.10
2022-12-03T18:12:17.839Z,2.10
2022-12-03T18:14:44.794Z,2.10
2022-12-03T18:17:11.800Z,2.10
2022-12-03T18:19:38.645Z,2.00
2022-12-03T18:22:05.780Z,2.10
2022-12-03T18:24:32.779Z,2.10
2022-12-03T18:26:59.710Z,2.10
2022-12-03T18:29:26.716Z,2.10
2022-12-03T18:31:53.701Z,2.10
2022-12-03T18:34:20.674Z,2.10
2022-12-03T18:36:49.230Z,2.10
2022-12-03T18:39:27.027Z,2.10
2022-12-03T18:41:54.245Z,2.10
2022-12-03T18:44:21.591Z,2.10
2022-12-03T18:46:55.656Z,2.10
2022-12-03T18:49:22.800Z,2.10
2022-12-03T18:51:53.285Z,2.10
2022-12-03T18:54:24.367Z,2.10
2022-12-03T18:56:51.166Z,2.10
2022-12-03T18:59:18.045Z,2.20
2022-12-03T19:01:45.090Z,2.10
2022-12-03T19:04:12.211Z,2.10
2022-12-03T19:06:40.265Z,2.10
2022-12-03T19:09:07.362Z,2.10
2022-12-03T19:11:34.302Z,2.10
2022-12-03T19:14:03.106Z,2.10
2022-12-03T19:16:30.107Z,2.10
2022-12-03T19:18:57.287Z,2.10
2022-12-03T19:21:25.704Z,2.10
2022-12-03T19:24:22.681Z,2.20
2022-12-03T19:26:42.005Z,2.10
2022-12-03T19:29:10.571Z,2.10
2022-12-03T19:31:37.443Z,2.10
2022-12-03T19:34:04.343Z,2.00
2022-12-03T19:36:32.476Z,2.10
2022-12-03T19:39:00.497Z,2.00
2022-12-03T19:41:30.706Z,2.10
2022-12-03T19:43:58.692Z,2.10
2022-12-03T19:46:31.934Z,2.20
2022-12-03T19:48:58.940Z,2.20
2022-12-03T19:51:34.786Z,2.10
2022-12-03T19:54:05.022Z,2.10
2022-12-03T19:56:32.210Z,2.10
2022-12-03T19:58:59.217Z,2.10
2022-12-03T20:01:29.798Z,2.10
2022-12-03T20:03:59.702Z,2.10
2022-12-03T20:06:31.354Z,2.10
2022-12-03T20:09:01.553Z,2.10
2022-12-03T20:11:31.858Z,2.20
2022-12-03T20:14:07.932Z,2.20
2022-12-03T20:16:36.192Z,2.20
2022-12-03T20:19:06.812Z,2.10
2022-12-03T20:21:36.578Z,2.10
2022-12-03T20:24:05.454Z,2.10
2022-12-03T20:26:32.640Z,2.20
2022-12-03T20:29:00.014Z,2.20
2022-12-03T20:31:30.971Z,2.20
2022-12-03T20:34:02.443Z,2.10
2022-12-03T20:36:31.670Z,2.10
2022-12-03T20:39:05.173Z,2.20
2022-12-03T20:41:36.087Z,2.10
2022-12-03T20:44:05.909Z,2.10
2022-12-03T20:46:33.038Z,2.00
2022-12-03T20:49:00.596Z,2.00
2022-12-03T20:51:30.267Z,2.00
2022-12-03T20:53:59.415Z,2.00
2022-12-03T20:56:31.363Z,1.90
2022-12-03T20:59:04.998Z,1.90
2022-12-03T21:01:32.820Z,2.00
2022-12-03T21:03:59.877Z,2.00
2022-12-03T21:06:29.771Z,2.00
2022-12-03T21:08:59.069Z,1.90
2022-12-03T21:11:32.365Z,1.90
2022-12-03T21:13:59.936Z,1.90
2022-12-03T21:16:59.276Z,1.90
2022-12-03T21:19:20.468Z,1.90
2022-12-03T21:21:47.479Z,1.90
2022-12-03T21:24:14.936Z,1.90
2022-12-03T21:26:41.834Z,1.90
2022-12-03T21:29:08.850Z,1.80
2022-12-03T21:31:37.973Z,1.80
2022-12-03T21:34:05.140Z,1.90
2022-12-03T21:36:32.340Z,1.90
2022-12-03T21:38:59.213Z,1.90
2022-12-03T21:41:26.412Z,1.90
2022-12-03T21:43:53.288Z,1.80
2022-12-03T21:47:10.609Z,1.80
2022-12-03T21:49:07.080Z,1.80
2022-12-03T21:51:33.909Z,1.90
2022-12-03T21:54:01.038Z,1.90
2022-12-03T21:56:30.769Z,1.90
2022-12-03T21:58:57.754Z,1.90
2022-12-03T22:01:25.387Z,1.90
2022-12-03T22:03:52.656Z,1.90
2022-12-03T22:06:20.067Z,1.90
2022-12-03T22:08:47.937Z,2.00
2022-12-03T22:11:21.876Z,2.00
2022-12-03T22:13:49.605Z,1.90
2022-12-03T22:16:20.650Z,2.00
2022-12-03T22:18:48.348Z,1.90
2022-12-03T22:21:19.239Z,1.80
2022-12-03T22:23:46.549Z,1.90
2022-12-03T22:26:16.328Z,1.90
2022-12-03T22:28:48.831Z,2.00
2022-12-03T22:31:17.594Z,2.00
2022-12-03T22:33:48.181Z,1.90
2022-12-03T22:36:21.079Z,1.90
2022-12-03T22:38:51.967Z,1.80
2022-12-03T22:41:19.880Z,1.80
2022-12-03T22:43:48.372Z,1.70
2022-12-03T22:46:16.023Z,1.60
2022-12-03T22:48:45.363Z,1.60
2022-12-03T22:51:19.729Z,1.60
2022-12-03T22:53:47.031Z,1.60
2022-12-03T22:56:14.252Z,1.60
2022-12-03T22:58:41.377Z,1.60
2022-12-03T23:01:08.653Z,1.70
2022-12-03T23:03:37.188Z,1.60
2022-12-03T23:06:11.317Z,1.60
2022-12-03T23:08:38.249Z,1.60
2022-12-03T23:11:05.248Z,1.60
2022-12-03T23:13:32.310Z,1.70
2022-12-03T23:15:59.489Z,1.60
2022-12-03T23:18:26.479Z,1.50
2022-12-03T23:20:56.281Z,1.50
2022-12-03T23:23:26.190Z,1.60
2022-12-03T23:26:08.075Z,1.60
2022-12-03T23:28:37.438Z,1.70
2022-12-03T23:31:06.031Z,1.70
2022-12-03T23:33:37.925Z,1.70
2022-12-03T23:36:07.288Z,1.70
2022-12-03T23:38:34.149Z,1.70
2022-12-03T23:41:06.540Z,1.70
2022-12-03T23:43:33.780Z,1.70
2022-12-03T23:46:14.189Z,1.60
2022-12-03T23:48:42.161Z,1.70
2022-12-03T23:51:17.687Z,1.70
2022-12-03T23:53:45.778Z,1.60
2022-12-03T23:56:16.695Z,1.60
2022-12-03T23:58:44.541Z,1.60
